Sonie — WDD2812 — position and weather

sailwx.info

Track history (hours):
 
Tides and Currents Weather Stations Pressure Air Temp Water Temp Dewpoint Dewpoint Depression Visibility Wind Speed Wind Dir Waves Ship Positions

Sonie

Owner: TUG SONIE, LLC, NEW CASTLE, DE. More information available from US FCC via Universal Licensing System and Coast Guard Vessel Documentation Center.

Last reported at 2018-Jan-21 04:30 UTC. Time now 2018-Jan-21 04:57 UTC.
Position N 39°43' W 075°31'.

Length 26 m; draft 3.5 m.

Type: Tug. MMSI: 367120230.

Date/timePositionNaut miles runAvg speedWind from/ knotsBaromVisibWave heightAir tempDewpointWater temp
2018-Jan-21 04:30N 39°43' W 075°31'0 0.0
2018-Jan-21 04:00N 39°43' W 075°31'0 0.0
2018-Jan-21 03:30N 39°43' W 075°31'0 0.0
2018-Jan-21 02:59N 39°43' W 075°31'0 0.0
2018-Jan-21 02:29N 39°43' W 075°31'0 0.0
2018-Jan-21 02:00N 39°43' W 075°31'0 0.0
2018-Jan-21 01:28N 39°43' W 075°31'0 0.0
2018-Jan-21 00:58N 39°43' W 075°31'0 0.0
2018-Jan-21 00:30N 39°43' W 075°31'0 0.0
2018-Jan-21 00:00N 39°43' W 075°31'0 0.0
2018-Jan-20 23:29N 39°43' W 075°31'2 3.6
2018-Jan-20 22:59N 39°44' W 075°30'510.6
2018-Jan-20 22:29N 39°48' W 075°25'1 1.3
2018-Jan-20 22:00N 39°49' W 075°24'0 0.7
2018-Jan-20 21:30N 39°49' W 075°24'0 0.0
2018-Jan-20 21:00N 39°49' W 075°24'1 2.4
2018-Jan-20 20:30N 39°48' W 075°26'1 1.6
2018-Jan-20 19:54N 39°48' W 075°25'1 2.3
2018-Jan-20 19:30N 39°49' W 075°24'2 3.5
2018-Jan-20 19:00N 39°48' W 075°26'3 6.2
2018-Jan-20 18:30N 39°46' W 075°29'2 3.7
2018-Jan-20 18:01N 39°44' W 075°30'2 4.0
2018-Jan-20 17:31N 39°42' W 075°31'8 0.6
2018-Jan-20 03:14N 39°35' W 075°35'0 0.0
2018-Jan-20 03:00N 39°35' W 075°35'0 0.1
2018-Jan-20 02:30N 39°35' W 075°35'0 0.0
2018-Jan-20 02:00N 39°35' W 075°35'0 0.0
2018-Jan-20 01:30N 39°35' W 075°35'0 0.0
2018-Jan-20 01:00N 39°35' W 075°35'0 0.0
2018-Jan-20 00:30N 39°35' W 075°35'0 0.0
2018-Jan-20 00:00N 39°35' W 075°35'0 0.0
2018-Jan-19 23:30N 39°35' W 075°35'0 0.0
2018-Jan-19 23:00N 39°35' W 075°35'0 0.0
2018-Jan-19 22:30N 39°35' W 075°35'0 0.0
2018-Jan-19 22:00N 39°35' W 075°35'0 0.0
2018-Jan-19 21:30N 39°35' W 075°35'0 0.0
2018-Jan-19 21:00N 39°35' W 075°35'0 0.3
2018-Jan-19 20:30N 39°35' W 075°35'0 0.0
2018-Jan-19 20:00N 39°35' W 075°35'1 1.0
2018-Jan-19 19:30N 39°35' W 075°35'2 3.8
2018-Jan-19 19:00N 39°34' W 075°33'2 4.9
2018-Jan-19 18:30N 39°36' W 075°34'4 7.6
2018-Jan-19 18:00N 39°40' W 075°33'4 7.4
2018-Jan-19 17:30N 39°43' W 075°32'0 0.0
2018-Jan-19 17:00N 39°43' W 075°32'0 0.0
2018-Jan-19 16:30N 39°43' W 075°32'0 0.0
2018-Jan-19 16:00N 39°43' W 075°32'0 0.0
2018-Jan-19 15:30N 39°43' W 075°32'0 0.0
2018-Jan-19 15:00N 39°43' W 075°32'0 0.0
2018-Jan-19 14:30N 39°43' W 075°32'0 0.3
2018-Jan-19 14:00N 39°43' W 075°32'1 1.4
2018-Jan-19 13:30N 39°43' W 075°31'2 4.9
2018-Jan-19 13:00N 39°41' W 075°32'0 0.3
2018-Jan-19 12:30N 39°41' W 075°32'2 4.0
2018-Jan-19 12:00N 39°43' W 075°31'1 1.2
2018-Jan-19 11:30N 39°43' W 075°31'0 0.4
2018-Jan-19 11:00N 39°43' W 075°31'0 0.6
2018-Jan-19 10:30N 39°43' W 075°31'0 0.0
2018-Jan-19 10:01N 39°43' W 075°31'0 0.0
2018-Jan-19 09:30N 39°43' W 075°31'0 0.0
2018-Jan-19 09:00N 39°43' W 075°31'0 0.0
2018-Jan-19 08:30N 39°43' W 075°31'0 0.0
2018-Jan-19 08:00N 39°43' W 075°31'0 0.0
2018-Jan-19 07:30N 39°43' W 075°31'0 0.0
2018-Jan-19 07:00N 39°43' W 075°31'0 0.0
2018-Jan-19 06:30N 39°43' W 075°31'0 0.0
2018-Jan-19 06:00N 39°43' W 075°31'0 0.0
2018-Jan-19 05:30N 39°43' W 075°31'0 0.0
2018-Jan-19 05:00N 39°43' W 075°31'0 0.0
2018-Jan-19 04:30N 39°43' W 075°31'0 0.9
2018-Jan-19 04:00N 39°43' W 075°31'510.8
2018-Jan-19 03:30N 39°38' W 075°35'3 6.9
2018-Jan-19 03:00N 39°35' W 075°35'0 0.0
2018-Jan-19 02:30N 39°35' W 075°35'0 0.2
2018-Jan-19 02:00N 39°35' W 075°35'0 0.0
2018-Jan-19 01:30N 39°35' W 075°35'0 0.0
2018-Jan-19 01:00N 39°35' W 075°35'0 0.0
2018-Jan-19 00:30N 39°35' W 075°35'0 0.0
2018-Jan-19 00:00N 39°35' W 075°35'0 0.0
2018-Jan-18 23:30N 39°35' W 075°35'0 0.0
2018-Jan-18 23:00N 39°35' W 075°35'3 6.9
2018-Jan-18 22:30N 39°32' W 075°33'4 7.9
2018-Jan-18 22:00N 39°28' W 075°33'4 8.9
2018-Jan-18 21:30N 39°24' W 075°30'4 8.3
2018-Jan-18 21:00N 39°21' W 075°27'8 8.5
2018-Jan-18 20:06N 39°16' W 075°20'1 9.1
2018-Jan-18 20:00N 39°15' W 075°19'4 8.4
2018-Jan-18 19:30N 39°11' W 075°17'5 9.1
2018-Jan-18 19:00N 39°08' W 075°13'11 1.3
2018-Jan-18 10:05N 38°57' W 075°10'0 0.1
2018-Jan-18 10:00N 38°57' W 075°10'4 4.0
2018-Jan-18 08:59N 38°60' W 075°13'0 0.0
2018-Jan-18 08:30N 38°60' W 075°13'0 0.3
2018-Jan-18 08:01N 38°60' W 075°13'0 0.1
2018-Jan-18 06:35N 38°60' W 075°13'0 1.0
2018-Jan-18 06:30N 38°60' W 075°13'0 0.0
2018-Jan-18 05:58N 38°60' W 075°13'0 0.0
2018-Jan-18 05:30N 38°60' W 075°13'0 0.0
2018-Jan-18 05:00N 38°60' W 075°13'0 0.0
2018-Jan-18 04:30N 38°60' W 075°13'0 0.0
2018-Jan-18 04:00N 38°60' W 075°13'1 0.2
2018-Jan-18 01:26N 39°00' W 075°14'2 4.3
2018-Jan-18 00:59N 38°59' W 075°13'  
2018-Jan-12 06:07N 38°58' W 075°12'0 0.2
2018-Jan-12 05:48N 38°58' W 075°12'0 0.2
2018-Jan-12 05:28N 38°58' W 075°12'0 0.1
2018-Jan-12 04:58N 38°58' W 075°12'0 0.0
2018-Jan-12 04:30N 38°58' W 075°12'0 0.0
2018-Jan-12 04:00N 38°58' W 075°12'0 0.1
2018-Jan-12 01:30N 38°58' W 075°12'1 1.4
2018-Jan-12 00:58N 38°57' W 075°11'2 5.0
2018-Jan-12 00:29N 38°55' W 075°10'14 7.6
2018-Jan-11 22:35N 39°09' W 075°15'1 9.9
2018-Jan-11 22:29N 39°10' W 075°16'4 9.3
2018-Jan-11 22:00N 39°14' W 075°18'5 9.5
2018-Jan-11 21:30N 39°17' W 075°22'5 9.4
2018-Jan-11 21:00N 39°21' W 075°26'5 9.8
2018-Jan-11 20:30N 39°25' W 075°30'4 9.0
2018-Jan-11 20:00N 39°28' W 075°34'510.6
2018-Jan-11 19:30N 39°33' W 075°33'510.3
2018-Jan-11 19:00N 39°38' W 075°34'611.7
2018-Jan-11 18:31N 39°44' W 075°30'611.4
2018-Jan-11 18:00N 39°48' W 075°25'510.7
2018-Jan-11 17:31N 39°51' W 075°20'3 6.1
2018-Jan-11 17:00N 39°51' W 075°16'0 0.0
2018-Jan-11 16:30N 39°51' W 075°16'0 0.0
2018-Jan-11 16:00N 39°51' W 075°16'2 4.7
2018-Jan-11 15:30N 39°51' W 075°19'4 7.9
2018-Jan-11 15:00N 39°49' W 075°23'2 4.3
2018-Jan-11 14:30N 39°48' W 075°26'0 0.0
2018-Jan-11 14:01N 39°48' W 075°26'0 0.0
2018-Jan-11 13:30N 39°48' W 075°26'0 0.0
2018-Jan-11 13:01N 39°48' W 075°26'0 0.0
2018-Jan-11 12:30N 39°48' W 075°26'0 0.0
2018-Jan-11 12:01N 39°48' W 075°26'0 0.0
2018-Jan-11 11:30N 39°48' W 075°26'0 0.0
2018-Jan-11 11:01N 39°48' W 075°26'0 0.0
2018-Jan-11 10:31N 39°48' W 075°26'0 0.0
2018-Jan-11 10:01N 39°48' W 075°26'0 0.0
2018-Jan-11 09:30N 39°48' W 075°26'0 0.0
2018-Jan-11 09:00N 39°48' W 075°26'0 0.0
2018-Jan-11 08:30N 39°48' W 075°26'0 0.0
2018-Jan-11 08:00N 39°48' W 075°26'0 0.0
2018-Jan-11 07:30N 39°48' W 075°26'1 2.0
2018-Jan-11 07:00N 39°49' W 075°25'0 0.8
2018-Jan-11 06:31N 39°49' W 075°24'0 0.3
2018-Jan-11 06:00N 39°49' W 075°24'0 0.2
2018-Jan-11 05:30N 39°49' W 075°24'1 1.6
2018-Jan-11 05:01N 39°49' W 075°24'3 5.9
2018-Jan-11 04:30N 39°51' W 075°20'  
Track history (hours):
 
Tides and Currents Weather Stations Pressure Air Temp Water Temp Dewpoint Dewpoint Depression Visibility Wind Speed Wind Dir Waves Ship Positions

Sonie

Owner: TUG SONIE, LLC, NEW CASTLE, DE. More information available from US FCC via Universal Licensing System and Coast Guard Vessel Documentation Center.

Last reported at 2018-Jan-21 04:30 UTC. Time now 2018-Jan-21 04:57 UTC.
Position N 39°43' W 075°31'.

Length 26 m; draft 3.5 m.

Type: Tug. MMSI: 367120230.

Date/timePositionNaut miles runAvg speedWind from/ knotsBaromVisibWave heightAir tempDewpointWater temp
2018-Jan-21 04:30N 39°43' W 075°31'0 0.0
2018-Jan-21 04:00N 39°43' W 075°31'0 0.0
2018-Jan-21 03:30N 39°43' W 075°31'0 0.0
2018-Jan-21 02:59N 39°43' W 075°31'0 0.0
2018-Jan-21 02:29N 39°43' W 075°31'0 0.0
2018-Jan-21 02:00N 39°43' W 075°31'0 0.0
2018-Jan-21 01:28N 39°43' W 075°31'0 0.0
2018-Jan-21 00:58N 39°43' W 075°31'0 0.0
2018-Jan-21 00:30N 39°43' W 075°31'0 0.0
2018-Jan-21 00:00N 39°43' W 075°31'0 0.0
2018-Jan-20 23:29N 39°43' W 075°31'2 3.6
2018-Jan-20 22:59N 39°44' W 075°30'510.6
2018-Jan-20 22:29N 39°48' W 075°25'1 1.3
2018-Jan-20 22:00N 39°49' W 075°24'0 0.7
2018-Jan-20 21:30N 39°49' W 075°24'0 0.0
2018-Jan-20 21:00N 39°49' W 075°24'1 2.4
2018-Jan-20 20:30N 39°48' W 075°26'1 1.6
2018-Jan-20 19:54N 39°48' W 075°25'1 2.3
2018-Jan-20 19:30N 39°49' W 075°24'2 3.5
2018-Jan-20 19:00N 39°48' W 075°26'3 6.2
2018-Jan-20 18:30N 39°46' W 075°29'2 3.7
2018-Jan-20 18:01N 39°44' W 075°30'2 4.0
2018-Jan-20 17:31N 39°42' W 075°31'8 0.6
2018-Jan-20 03:14N 39°35' W 075°35'0 0.0
2018-Jan-20 03:00N 39°35' W 075°35'0 0.1
2018-Jan-20 02:30N 39°35' W 075°35'0 0.0
2018-Jan-20 02:00N 39°35' W 075°35'0 0.0
2018-Jan-20 01:30N 39°35' W 075°35'0 0.0
2018-Jan-20 01:00N 39°35' W 075°35'0 0.0
2018-Jan-20 00:30N 39°35' W 075°35'0 0.0
2018-Jan-20 00:00N 39°35' W 075°35'0 0.0
2018-Jan-19 23:30N 39°35' W 075°35'0 0.0
2018-Jan-19 23:00N 39°35' W 075°35'0 0.0
2018-Jan-19 22:30N 39°35' W 075°35'0 0.0
2018-Jan-19 22:00N 39°35' W 075°35'0 0.0
2018-Jan-19 21:30N 39°35' W 075°35'0 0.0
2018-Jan-19 21:00N 39°35' W 075°35'0 0.3
2018-Jan-19 20:30N 39°35' W 075°35'0 0.0
2018-Jan-19 20:00N 39°35' W 075°35'1 1.0
2018-Jan-19 19:30N 39°35' W 075°35'2 3.8
2018-Jan-19 19:00N 39°34' W 075°33'2 4.9
2018-Jan-19 18:30N 39°36' W 075°34'4 7.6
2018-Jan-19 18:00N 39°40' W 075°33'4 7.4
2018-Jan-19 17:30N 39°43' W 075°32'0 0.0
2018-Jan-19 17:00N 39°43' W 075°32'0 0.0
2018-Jan-19 16:30N 39°43' W 075°32'0 0.0
2018-Jan-19 16:00N 39°43' W 075°32'0 0.0
2018-Jan-19 15:30N 39°43' W 075°32'0 0.0
2018-Jan-19 15:00N 39°43' W 075°32'0 0.0
2018-Jan-19 14:30N 39°43' W 075°32'0 0.3
2018-Jan-19 14:00N 39°43' W 075°32'1 1.4
2018-Jan-19 13:30N 39°43' W 075°31'2 4.9
2018-Jan-19 13:00N 39°41' W 075°32'0 0.3
2018-Jan-19 12:30N 39°41' W 075°32'2 4.0
2018-Jan-19 12:00N 39°43' W 075°31'1 1.2
2018-Jan-19 11:30N 39°43' W 075°31'0 0.4
2018-Jan-19 11:00N 39°43' W 075°31'0 0.6
2018-Jan-19 10:30N 39°43' W 075°31'0 0.0
2018-Jan-19 10:01N 39°43' W 075°31'0 0.0
2018-Jan-19 09:30N 39°43' W 075°31'0 0.0
2018-Jan-19 09:00N 39°43' W 075°31'0 0.0
2018-Jan-19 08:30N 39°43' W 075°31'0 0.0
2018-Jan-19 08:00N 39°43' W 075°31'0 0.0
2018-Jan-19 07:30N 39°43' W 075°31'0 0.0
2018-Jan-19 07:00N 39°43' W 075°31'0 0.0
2018-Jan-19 06:30N 39°43' W 075°31'0 0.0
2018-Jan-19 06:00N 39°43' W 075°31'0 0.0
2018-Jan-19 05:30N 39°43' W 075°31'0 0.0
2018-Jan-19 05:00N 39°43' W 075°31'0 0.0
2018-Jan-19 04:30N 39°43' W 075°31'0 0.9
2018-Jan-19 04:00N 39°43' W 075°31'510.8
2018-Jan-19 03:30N 39°38' W 075°35'3 6.9
2018-Jan-19 03:00N 39°35' W 075°35'0 0.0
2018-Jan-19 02:30N 39°35' W 075°35'0 0.2
2018-Jan-19 02:00N 39°35' W 075°35'0 0.0
2018-Jan-19 01:30N 39°35' W 075°35'0 0.0
2018-Jan-19 01:00N 39°35' W 075°35'0 0.0
2018-Jan-19 00:30N 39°35' W 075°35'0 0.0
2018-Jan-19 00:00N 39°35' W 075°35'0 0.0
2018-Jan-18 23:30N 39°35' W 075°35'0 0.0
2018-Jan-18 23:00N 39°35' W 075°35'3 6.9
2018-Jan-18 22:30N 39°32' W 075°33'4 7.9
2018-Jan-18 22:00N 39°28' W 075°33'4 8.9
2018-Jan-18 21:30N 39°24' W 075°30'4 8.3
2018-Jan-18 21:00N 39°21' W 075°27'8 8.5
2018-Jan-18 20:06N 39°16' W 075°20'1 9.1
2018-Jan-18 20:00N 39°15' W 075°19'4 8.4
2018-Jan-18 19:30N 39°11' W 075°17'5 9.1
2018-Jan-18 19:00N 39°08' W 075°13'11 1.3
2018-Jan-18 10:05N 38°57' W 075°10'0 0.1
2018-Jan-18 10:00N 38°57' W 075°10'4 4.0
2018-Jan-18 08:59N 38°60' W 075°13'0 0.0
2018-Jan-18 08:30N 38°60' W 075°13'0 0.3
2018-Jan-18 08:01N 38°60' W 075°13'0 0.1
2018-Jan-18 06:35N 38°60' W 075°13'0 1.0
2018-Jan-18 06:30N 38°60' W 075°13'0 0.0
2018-Jan-18 05:58N 38°60' W 075°13'0 0.0
2018-Jan-18 05:30N 38°60' W 075°13'0 0.0
2018-Jan-18 05:00N 38°60' W 075°13'0 0.0
2018-Jan-18 04:30N 38°60' W 075°13'0 0.0
2018-Jan-18 04:00N 38°60' W 075°13'1 0.2
2018-Jan-18 01:26N 39°00' W 075°14'2 4.3
2018-Jan-18 00:59N 38°59' W 075°13'  
2018-Jan-12 06:07N 38°58' W 075°12'0 0.2
2018-Jan-12 05:48N 38°58' W 075°12'0 0.2
2018-Jan-12 05:28N 38°58' W 075°12'0 0.1
2018-Jan-12 04:58N 38°58' W 075°12'0 0.0
2018-Jan-12 04:30N 38°58' W 075°12'0 0.0
2018-Jan-12 04:00N 38°58' W 075°12'0 0.1
2018-Jan-12 01:30N 38°58' W 075°12'1 1.4
2018-Jan-12 00:58N 38°57' W 075°11'2 5.0
2018-Jan-12 00:29N 38°55' W 075°10'14 7.6
2018-Jan-11 22:35N 39°09' W 075°15'1 9.9
2018-Jan-11 22:29N 39°10' W 075°16'4 9.3
2018-Jan-11 22:00N 39°14' W 075°18'5 9.5
2018-Jan-11 21:30N 39°17' W 075°22'5 9.4
2018-Jan-11 21:00N 39°21' W 075°26'5 9.8
2018-Jan-11 20:30N 39°25' W 075°30'4 9.0
2018-Jan-11 20:00N 39°28' W 075°34'510.6
2018-Jan-11 19:30N 39°33' W 075°33'510.3
2018-Jan-11 19:00N 39°38' W 075°34'611.7
2018-Jan-11 18:31N 39°44' W 075°30'611.4
2018-Jan-11 18:00N 39°48' W 075°25'510.7
2018-Jan-11 17:31N 39°51' W 075°20'3 6.1
2018-Jan-11 17:00N 39°51' W 075°16'0 0.0
2018-Jan-11 16:30N 39°51' W 075°16'0 0.0
2018-Jan-11 16:00N 39°51' W 075°16'2 4.7
2018-Jan-11 15:30N 39°51' W 075°19'4 7.9
2018-Jan-11 15:00N 39°49' W 075°23'2 4.3
2018-Jan-11 14:30N 39°48' W 075°26'0 0.0
2018-Jan-11 14:01N 39°48' W 075°26'0 0.0
2018-Jan-11 13:30N 39°48' W 075°26'0 0.0
2018-Jan-11 13:01N 39°48' W 075°26'0 0.0
2018-Jan-11 12:30N 39°48' W 075°26'0 0.0
2018-Jan-11 12:01N 39°48' W 075°26'0 0.0
2018-Jan-11 11:30N 39°48' W 075°26'0 0.0
2018-Jan-11 11:01N 39°48' W 075°26'0 0.0
2018-Jan-11 10:31N 39°48' W 075°26'0 0.0
2018-Jan-11 10:01N 39°48' W 075°26'0 0.0
2018-Jan-11 09:30N 39°48' W 075°26'0 0.0
2018-Jan-11 09:00N 39°48' W 075°26'0 0.0
2018-Jan-11 08:30N 39°48' W 075°26'0 0.0
2018-Jan-11 08:00N 39°48' W 075°26'0 0.0
2018-Jan-11 07:30N 39°48' W 075°26'1 2.0
2018-Jan-11 07:00N 39°49' W 075°25'0 0.8
2018-Jan-11 06:31N 39°49' W 075°24'0 0.3
2018-Jan-11 06:00N 39°49' W 075°24'0 0.2
2018-Jan-11 05:30N 39°49' W 075°24'1 1.6
2018-Jan-11 05:01N 39°49' W 075°24'3 5.9
2018-Jan-11 04:30N 39°51' W 075°20'  

Dump ship's entire track history